createdAt,value
2023-02-24T00:04:56.221Z,100496.38
2023-02-24T00:10:01.522Z,100489.06
2023-02-24T00:15:05.781Z,100485.31
2023-02-24T00:20:10.559Z,100491.69
2023-02-24T00:25:15.908Z,100481.09
2023-02-24T00:30:19.889Z,100471.16
2023-02-24T00:35:23.498Z,100462.25
2023-02-24T00:40:29.472Z,100457.97
2023-02-24T00:45:36.068Z,100460.72
2023-02-24T00:50:40.334Z,100438.31
2023-02-24T00:55:45.723Z,100435.06
2023-02-24T01:00:49.353Z,100421.53
2023-02-24T01:05:53.359Z,100409.22
2023-02-24T01:11:00.460Z,100408.78
2023-02-24T01:16:04.191Z,100406.47
2023-02-24T01:21:08.040Z,100395.06
2023-02-24T01:26:13.507Z,100388.91
2023-02-24T01:31:18.113Z,100383.81
2023-02-24T01:36:25.338Z,100374.22
2023-02-24T01:41:30.669Z,100376.16
2023-02-24T01:46:35.761Z,100339.97
2023-02-24T01:51:44.901Z,100351.66
2023-02-24T01:56:51.912Z,100344.91
2023-02-24T02:02:01.866Z,100329.00
2023-02-24T02:07:06.492Z,100331.78
2023-02-24T02:12:12.319Z,100309.50
2023-02-24T02:17:21.429Z,100319.28
2023-02-24T02:22:55.818Z,100298.38
2023-02-24T02:28:26.656Z,100293.06
2023-02-24T02:33:54.378Z,100292.25
2023-02-24T02:39:06.993Z,100294.59
2023-02-24T02:44:15.237Z,100297.06
2023-02-24T02:49:25.678Z,100286.94
2023-02-24T02:54:34.297Z,100289.50
2023-02-24T02:59:43.686Z,100283.47
2023-02-24T03:04:52.427Z,100270.41
2023-02-24T03:10:00.892Z,100257.41
2023-02-24T03:15:08.778Z,100248.84
2023-02-24T03:20:20.795Z,100271.59
2023-02-24T03:25:28.487Z,100278.38
2023-02-24T03:30:40.264Z,100247.75
2023-02-24T03:35:46.740Z,100219.50
2023-02-24T03:40:49.593Z,100203.88
2023-02-24T03:45:53.670Z,100197.56
2023-02-24T03:51:00.001Z,100219.63
2023-02-24T03:56:16.798Z,100220.66
2023-02-24T04:01:27.699Z,100219.84
2023-02-24T04:06:43.463Z,100218.38
2023-02-24T04:11:54.655Z,100180.16
2023-02-24T04:17:03.438Z,100141.38
2023-02-24T04:22:16.226Z,100175.50
2023-02-24T04:27:20.796Z,100168.88
2023-02-24T04:32:28.782Z,100164.25
2023-02-24T04:37:34.381Z,100183.94
2023-02-24T04:42:38.076Z,100193.31
2023-02-24T04:47:41.692Z,100149.16
2023-02-24T04:52:48.896Z,100156.25
2023-02-24T04:57:54.422Z,100158.91
2023-02-24T05:02:58.469Z,100188.47
2023-02-24T05:08:05.924Z,100161.44
2023-02-24T05:13:10.009Z,100190.84
2023-02-24T05:18:15.431Z,100194.44
2023-02-24T05:23:20.948Z,100178.09
2023-02-24T05:28:24.776Z,100216.31
2023-02-24T05:33:28.380Z,100219.13
2023-02-24T05:38:33.947Z,100212.03
2023-02-24T05:43:37.590Z,100188.06
2023-02-24T05:48:41.201Z,100184.69
2023-02-24T05:53:46.472Z,100147.81
2023-02-24T05:58:50.413Z,100131.00
2023-02-24T06:03:58.966Z,100170.53
2023-02-24T06:09:05.016Z,100171.47
2023-02-24T06:14:09.713Z,100163.38
2023-02-24T06:19:13.877Z,100151.19
2023-02-24T06:24:19.178Z,100125.88
2023-02-24T06:29:22.789Z,100098.31
2023-02-24T06:34:26.984Z,100088.81
2023-02-24T06:39:34.391Z,100113.00
2023-02-24T06:44:41.324Z,100094.53
2023-02-24T06:49:45.057Z,100103.91
2023-02-24T06:54:51.036Z,100087.28
2023-02-24T06:59:54.622Z,100062.34
2023-02-24T07:04:58.234Z,100089.09
2023-02-24T07:10:03.533Z,100068.72
2023-02-24T07:15:08.583Z,100078.22
2023-02-24T07:20:13.499Z,100056.75
2023-02-24T07:25:19.243Z,100051.34
2023-02-24T07:30:22.893Z,100036.00
2023-02-24T07:35:26.616Z,100038.38
2023-02-24T07:40:33.028Z,100047.19
2023-02-24T07:45:35.953Z,100030.78
2023-02-24T07:50:41.631Z,100023.66
2023-02-24T07:55:46.923Z,100029.41
2023-02-24T08:00:50.736Z,100025.75
2023-02-24T08:05:57.295Z,100055.66
2023-02-24T08:11:02.672Z,100053.31
2023-02-24T08:16:07.613Z,100019.91
2023-02-24T08:21:11.340Z,100029.38
2023-02-24T08:26:16.653Z,100012.34
2023-02-24T08:31:20.646Z,100013.13
2023-02-24T08:36:24.629Z,99987.19
2023-02-24T08:41:29.934Z,99975.91
2023-02-24T08:46:33.622Z,99980.88
2023-02-24T08:51:38.305Z,99962.72
2023-02-24T08:56:44.371Z,99977.69
2023-02-24T09:01:53.354Z,99975.09
2023-02-24T09:07:11.768Z,99973.28
2023-02-24T09:12:17.655Z,99965.13
2023-02-24T09:17:21.283Z,99958.00
2023-02-24T09:22:26.025Z,99944.97
2023-02-24T09:27:31.302Z,99931.16
2023-02-24T09:32:35.149Z,99922.47
2023-02-24T09:37:38.897Z,99930.47
2023-02-24T09:42:44.254Z,99895.88
2023-02-24T09:47:49.449Z,99907.41
2023-02-24T09:53:00.080Z,99900.44
2023-02-24T09:58:18.228Z,99886.75
2023-02-24T10:03:26.244Z,99877.06
2023-02-24T10:08:36.398Z,99878.81
2023-02-24T10:13:48.386Z,99878.94
2023-02-24T10:18:54.921Z,99899.13
2023-02-24T10:24:04.906Z,99923.28
2023-02-24T10:29:19.298Z,99921.44
2023-02-24T10:34:24.078Z,99923.75
2023-02-24T10:39:28.201Z,99904.81
2023-02-24T10:44:33.517Z,99902.97
2023-02-24T10:49:42.122Z,99902.06
2023-02-24T10:54:46.605Z,99882.47
2023-02-24T10:59:54.981Z,99867.91
2023-02-24T11:05:02.540Z,99864.69
2023-02-24T11:10:12.280Z,99881.31
2023-02-24T11:15:22.801Z,99860.47
2023-02-24T11:20:46.492Z,99858.72
2023-02-24T11:25:55.016Z,99870.06
2023-02-24T11:31:11.512Z,99852.63
2023-02-24T11:36:23.336Z,99840.41
2023-02-24T11:41:31.231Z,99828.31
2023-02-24T11:46:43.440Z,99829.19
2023-02-24T11:51:47.324Z,99817.97
2023-02-24T11:56:55.379Z,99822.28
2023-02-24T12:02:06.935Z,99827.47
2023-02-24T12:07:19.820Z,99828.28
2023-02-24T12:12:27.394Z,99839.38
2023-02-24T12:17:37.544Z,99857.69
2023-02-24T12:22:47.773Z,99842.75
2023-02-24T12:28:03.345Z,99841.97
2023-02-24T12:33:31.135Z,99839.31
2023-02-24T12:38:45.792Z,99841.91
2023-02-24T12:43:56.147Z,99843.69
2023-02-24T12:49:33.476Z,99835.03
2023-02-24T12:54:44.749Z,99841.34
2023-02-24T12:59:49.697Z,99832.94
2023-02-24T13:05:05.189Z,99841.28
2023-02-24T13:10:19.642Z,99838.47
2023-02-24T13:15:24.995Z,99825.53
2023-02-24T13:20:33.276Z,99812.56
2023-02-24T13:25:38.275Z,99825.47
2023-02-24T13:30:44.932Z,99831.56
2023-02-24T13:35:51.067Z,99841.16
2023-02-24T13:40:55.064Z,99848.03
2023-02-24T13:46:01.252Z,99846.25
2023-02-24T13:51:30.914Z,99854.03
2023-02-24T13:56:43.705Z,99856.47
2023-02-24T14:01:50.495Z,99847.78
2023-02-24T14:06:59.204Z,99853.22
2023-02-24T14:12:06.301Z,99851.56
2023-02-24T14:17:21.672Z,99853.25
2023-02-24T14:22:26.970Z,99854.09
2023-02-24T14:27:31.012Z,99871.38
2023-02-24T14:32:35.669Z,99875.25
2023-02-24T14:37:41.038Z,99879.06
2023-02-24T14:42:49.192Z,99907.41
2023-02-24T14:47:52.931Z,99915.22
2023-02-24T14:53:02.932Z,99928.09
2023-02-24T14:58:13.133Z,99929.75
2023-02-24T15:03:19.832Z,99940.94
2023-02-24T15:08:34.729Z,99946.97
2023-02-24T15:13:41.749Z,99970.97
2023-02-24T15:18:50.181Z,99989.19
2023-02-24T15:24:02.965Z,99971.09
2023-02-24T15:29:15.557Z,99985.88
2023-02-24T15:34:21.561Z,99997.94
2023-02-24T15:39:29.801Z,100008.09
2023-02-24T15:44:35.827Z,100020.91
2023-02-24T15:49:39.430Z,100033.78
2023-02-24T15:54:44.747Z,100039.84
2023-02-24T15:59:48.849Z,100054.50
2023-02-24T16:04:53.008Z,100050.81
2023-02-24T16:09:59.901Z,100046.44
2023-02-24T16:15:06.548Z,100057.38
2023-02-24T16:20:14.723Z,100071.84
2023-02-24T16:25:20.964Z,100086.22
2023-02-24T16:30:26.801Z,100080.13
2023-02-24T16:35:30.521Z,100094.06
2023-02-24T16:40:36.985Z,100086.38
2023-02-24T16:45:40.267Z,100097.59
2023-02-24T16:50:45.401Z,100133.78
2023-02-24T16:55:51.416Z,100124.03
2023-02-24T17:00:57.756Z,100133.47
2023-02-24T17:06:01.415Z,100122.25
2023-02-24T17:11:06.988Z,100132.53
2023-02-24T17:16:10.881Z,100149.63
2023-02-24T17:21:16.058Z,100144.19
2023-02-24T17:26:21.628Z,100161.16
2023-02-24T17:31:25.535Z,100189.06
2023-02-24T17:36:30.076Z,100193.56
2023-02-24T17:41:35.416Z,100178.25
2023-02-24T17:46:39.939Z,100193.34
2023-02-24T17:51:43.733Z,100209.56
2023-02-24T17:56:49.015Z,100217.38
2023-02-24T18:01:52.772Z,100230.44
2023-02-24T18:06:56.516Z,100207.44
2023-02-24T18:12:02.073Z,100235.25
2023-02-24T18:17:05.685Z,100246.38
2023-02-24T18:22:09.789Z,100263.84
2023-02-24T18:27:15.146Z,100267.47
2023-02-24T18:32:19.219Z,100273.22
2023-02-24T18:37:23.184Z,100268.84
2023-02-24T18:42:28.480Z,100274.06
2023-02-24T18:47:32.160Z,100294.34
2023-02-24T18:52:36.000Z,100303.66
2023-02-24T18:57:42.282Z,100303.16
2023-02-24T19:02:46.251Z,100308.25
2023-02-24T19:07:49.986Z,100303.19
2023-02-24T19:12:55.342Z,100308.03
2023-02-24T19:17:59.068Z,100324.75
2023-02-24T19:23:02.834Z,100338.53
2023-02-24T19:28:08.164Z,100335.69
2023-02-24T19:33:11.962Z,100328.47
2023-02-24T19:38:16.575Z,100328.41
2023-02-24T19:43:21.940Z,100326.38
2023-02-24T19:48:25.632Z,100331.50
2023-02-24T19:53:29.834Z,100342.63
2023-02-24T19:58:35.457Z,100333.69
2023-02-24T20:03:40.052Z,100345.00
2023-02-24T20:08:43.772Z,100345.59
2023-02-24T20:13:51.672Z,100340.38
2023-02-24T20:18:56.098Z,100337.44
2023-02-24T20:24:00.775Z,100342.41
2023-02-24T20:29:06.142Z,100334.81
2023-02-24T20:34:10.410Z,100328.91
2023-02-24T20:39:14.194Z,100333.66
2023-02-24T20:44:19.503Z,100318.84
2023-02-24T20:49:23.327Z,100311.94
2023-02-24T20:54:27.036Z,100322.25
2023-02-24T20:59:32.293Z,100322.81
2023-02-24T21:04:36.028Z,100308.50
2023-02-24T21:09:39.759Z,100324.59
2023-02-24T21:14:45.365Z,100326.09
2023-02-24T21:19:49.046Z,100330.28
2023-02-24T21:24:52.657Z,100341.78
2023-02-24T21:29:57.942Z,100341.91
2023-02-24T21:35:01.720Z,100345.19
2023-02-24T21:40:06.482Z,100360.72
2023-02-24T21:45:12.475Z,100361.34
2023-02-24T21:50:16.430Z,100356.38
2023-02-24T21:55:20.210Z,100360.13
2023-02-24T22:00:25.697Z,100370.03
2023-02-24T22:05:29.328Z,100368.19
2023-02-24T22:10:32.949Z,100369.84
2023-02-24T22:15:39.694Z,100376.22
2023-02-24T22:20:43.385Z,100377.50
2023-02-24T22:25:47.065Z,100381.19
2023-02-24T22:30:58.032Z,100387.69
2023-02-24T22:36:04.083Z,100378.31
2023-02-24T22:41:12.027Z,100386.41
2023-02-24T22:46:19.854Z,100393.69
2023-02-24T22:51:24.348Z,100396.81
2023-02-24T22:56:29.292Z,100396.53
2023-02-24T23:01:37.045Z,100397.97
2023-02-24T23:06:40.733Z,100390.22
2023-02-24T23:11:44.555Z,100394.88
2023-02-24T23:16:53.646Z,100399.94
2023-02-24T23:21:57.358Z,100411.69
2023-02-24T23:27:01.645Z,100426.34
2023-02-24T23:32:07.113Z,100429.66
2023-02-24T23:37:10.902Z,100427.97
2023-02-24T23:42:14.499Z,100431.97
2023-02-24T23:47:19.781Z,100434.13
2023-02-24T23:52:23.485Z,100435.94
2023-02-24T23:57:29.205Z,100440.00
